createdAt,value
2019-04-09T00:01:08.948Z,13.34
2019-04-09T00:03:38.426Z,13.30
2019-04-09T00:06:07.887Z,13.30
2019-04-09T00:08:37.944Z,13.32
2019-04-09T00:11:07.934Z,13.38
2019-04-09T00:20:08.302Z,13.52
2019-04-09T00:22:37.726Z,13.49
2019-04-09T00:25:08.135Z,13.50
2019-04-09T00:27:37.455Z,13.55
2019-04-09T00:30:10.118Z,13.60
2019-04-09T00:32:38.896Z,13.62
2019-04-09T00:35:09.101Z,13.60
2019-04-09T00:37:38.573Z,13.54
2019-04-09T00:40:08.688Z,13.49
2019-04-09T00:42:38.110Z,13.52
2019-04-09T00:45:07.678Z,13.51
2019-04-09T00:47:37.149Z,13.53
2019-04-09T00:50:07.134Z,13.49
2019-04-09T00:52:36.783Z,13.47
2019-04-09T00:55:07.969Z,13.56
2019-04-09T00:57:37.401Z,13.58
2019-04-09T01:00:10.546Z,13.51
2019-04-09T01:02:40.861Z,13.46
2019-04-09T01:05:11.161Z,13.48
2019-04-09T01:07:41.332Z,13.47
2019-04-09T01:10:10.918Z,13.49
2019-04-09T01:12:40.970Z,13.51
2019-04-09T01:15:10.765Z,13.50
2019-04-09T01:17:40.271Z,13.48
2019-04-09T01:20:09.771Z,13.47
2019-04-09T01:22:39.353Z,13.51
2019-04-09T01:25:26.718Z,13.45
2019-04-09T01:27:56.701Z,13.42
2019-04-09T01:30:31.803Z,13.38
2019-04-09T01:33:08.685Z,13.39
2019-04-09T01:35:56.085Z,13.44
2019-04-09T01:38:27.430Z,13.37
2019-04-09T01:41:04.880Z,13.39
2019-04-09T01:43:35.972Z,13.33
2019-04-09T01:46:10.418Z,13.29
2019-04-09T01:48:57.484Z,13.24
2019-04-09T01:51:28.888Z,13.19
2019-04-09T01:54:04.026Z,13.20
2019-04-09T01:56:35.319Z,13.19
2019-04-09T01:59:06.370Z,13.19
2019-04-09T02:01:43.287Z,13.23
2019-04-09T02:04:20.672Z,13.17
2019-04-09T02:07:01.676Z,13.17
2019-04-09T02:09:40.071Z,13.19
2019-04-09T02:12:16.767Z,13.22
2019-04-09T02:14:47.971Z,13.16
2019-04-09T02:17:24.606Z,13.15
2019-04-09T02:20:10.506Z,13.15
2019-04-09T02:22:44.917Z,13.10
2019-04-09T02:25:31.276Z,13.12
2019-04-09T02:28:08.949Z,13.09
2019-04-09T02:30:57.715Z,13.05
2019-04-09T02:33:46.156Z,13.02
2019-04-09T02:36:30.637Z,12.97
2019-04-09T02:39:08.539Z,12.94
2019-04-09T02:41:52.168Z,12.91
2019-04-09T02:44:35.205Z,12.87
2019-04-09T02:47:12.262Z,12.87
2019-04-09T02:49:45.841Z,12.89
2019-04-09T02:52:23.296Z,12.87
2019-04-09T02:54:58.283Z,12.87
2019-04-09T02:57:30.315Z,12.90
2019-04-09T03:00:01.808Z,12.89
2019-04-09T03:02:49.295Z,12.89
2019-04-09T03:05:35.079Z,12.88
2019-04-09T03:08:06.474Z,12.88
2019-04-09T03:10:38.395Z,12.91
2019-04-09T03:13:26.172Z,12.94
2019-04-09T03:15:57.538Z,12.93
2019-04-09T03:18:31.516Z,13.00
2019-04-09T03:21:15.282Z,12.97
2019-04-09T03:24:05.696Z,12.98
2019-04-09T03:26:43.051Z,12.98
2019-04-09T03:29:23.256Z,13.00
2019-04-09T03:32:06.497Z,13.00
2019-04-09T03:34:43.465Z,13.02
2019-04-09T03:37:14.710Z,13.01
2019-04-09T03:40:02.946Z,13.02
2019-04-09T03:42:34.780Z,12.97
2019-04-09T03:45:11.039Z,13.01
2019-04-09T03:47:58.898Z,12.97
2019-04-09T03:50:39.919Z,12.93
2019-04-09T03:53:16.474Z,12.93
2019-04-09T03:55:51.185Z,12.94
2019-04-09T03:58:23.956Z,12.93
2019-04-09T04:00:55.226Z,12.95
2019-04-09T04:03:38.660Z,12.99
2019-04-09T04:06:26.078Z,12.98
2019-04-09T04:09:12.974Z,12.91
2019-04-09T04:11:43.941Z,12.90
2019-04-09T04:14:33.352Z,12.89
2019-04-09T04:17:13.143Z,12.91
2019-04-09T04:19:44.149Z,12.94
2019-04-09T04:22:21.479Z,12.97
2019-04-09T04:24:55.476Z,13.00
2019-04-09T04:27:42.561Z,13.01
2019-04-09T04:30:25.794Z,13.07
2019-04-09T04:33:08.961Z,13.03
2019-04-09T04:35:49.148Z,12.97
2019-04-09T04:38:20.778Z,12.95
2019-04-09T04:41:07.940Z,12.89
2019-04-09T04:43:55.570Z,12.86
2019-04-09T04:46:27.097Z,12.86
2019-04-09T04:49:02.591Z,12.84
2019-04-09T04:51:37.082Z,12.82
2019-04-09T04:54:08.201Z,12.80
2019-04-09T04:56:56.357Z,12.78
2019-04-09T04:59:28.441Z,12.79
2019-04-09T05:02:00.499Z,12.88
2019-04-09T05:04:37.789Z,12.84
2019-04-09T05:07:14.769Z,12.83
2019-04-09T05:09:51.735Z,12.87
2019-04-09T05:12:23.589Z,12.93
2019-04-09T05:14:55.065Z,12.94
2019-04-09T05:17:42.671Z,12.90
2019-04-09T05:20:13.630Z,12.87
2019-04-09T05:22:56.975Z,12.86
2019-04-09T05:25:43.197Z,12.85
2019-04-09T05:28:16.811Z,12.84
2019-04-09T05:30:47.859Z,12.82
2019-04-09T05:33:18.906Z,12.83
2019-04-09T05:35:56.113Z,12.88
2019-04-09T05:38:33.531Z,12.86
2019-04-09T05:41:07.971Z,12.86
2019-04-09T05:43:57.019Z,12.90
2019-04-09T05:46:31.921Z,12.83
2019-04-09T05:49:03.482Z,12.83
2019-04-09T05:51:49.192Z,12.78
2019-04-09T05:54:35.675Z,12.84
2019-04-09T05:57:15.837Z,12.87
2019-04-09T05:59:56.016Z,12.88
2019-04-09T06:02:30.146Z,12.99
2019-04-09T06:05:07.117Z,13.05
2019-04-09T06:07:45.059Z,13.17
2019-04-09T06:10:14.611Z,13.32
2019-04-09T06:12:44.992Z,13.48
2019-04-09T06:15:14.959Z,13.59
2019-04-09T06:17:45.651Z,13.61
2019-04-09T06:20:15.173Z,13.59
2019-04-09T06:22:45.589Z,13.61
2019-04-09T06:25:16.954Z,13.66
2019-04-09T06:27:46.378Z,13.68
2019-04-09T06:30:15.887Z,13.77
2019-04-09T06:32:53.305Z,13.87
2019-04-09T06:35:27.802Z,13.95
2019-04-09T06:38:01.617Z,13.99
2019-04-09T06:40:32.622Z,14.09
2019-04-09T06:43:07.340Z,14.28
2019-04-09T06:45:42.213Z,14.52
2019-04-09T06:48:23.733Z,14.72
2019-04-09T06:50:54.959Z,14.88
2019-04-09T06:53:29.062Z,15.02
2019-04-09T06:56:12.182Z,15.12
2019-04-09T06:58:45.684Z,15.10
2019-04-09T07:01:17.116Z,15.02
2019-04-09T07:03:51.091Z,15.07
2019-04-09T07:06:22.145Z,15.29
2019-04-09T07:08:53.350Z,15.54
2019-04-09T07:11:24.540Z,15.68
2019-04-09T07:13:58.492Z,15.68
2019-04-09T07:16:32.201Z,15.74
2019-04-09T07:19:20.819Z,15.72
2019-04-09T07:21:58.016Z,15.90
2019-04-09T07:24:32.017Z,15.96
2019-04-09T07:27:03.595Z,16.00
2019-04-09T07:29:50.391Z,16.05
2019-04-09T07:32:19.348Z,16.19
2019-04-09T07:35:02.592Z,16.13
2019-04-09T07:37:34.251Z,15.98
2019-04-09T07:40:22.461Z,15.90
2019-04-09T07:42:56.373Z,15.82
2019-04-09T07:45:27.434Z,15.79
2019-04-09T07:48:01.426Z,15.70
2019-04-09T07:50:51.889Z,15.63
2019-04-09T07:53:28.584Z,15.72
2019-04-09T07:56:01.464Z,15.81
2019-04-09T07:58:32.441Z,15.84
2019-04-09T08:01:17.670Z,15.97
2019-04-09T08:04:07.304Z,16.17
2019-04-09T08:06:52.692Z,16.42
2019-04-09T08:09:39.893Z,16.65
2019-04-09T08:12:22.730Z,16.88
2019-04-09T08:15:10.134Z,17.11
2019-04-09T08:17:46.390Z,17.36
2019-04-09T08:20:23.535Z,17.45
2019-04-09T08:22:53.121Z,17.58
2019-04-09T08:25:36.245Z,17.59
2019-04-09T08:28:24.604Z,17.68
2019-04-09T08:31:14.595Z,17.85
2019-04-09T08:33:55.320Z,17.95
2019-04-09T08:36:26.797Z,18.05
2019-04-09T08:39:13.211Z,18.05
2019-04-09T08:41:59.640Z,18.19
2019-04-09T08:44:48.711Z,18.24
2019-04-09T08:47:26.544Z,18.44
2019-04-09T08:50:06.905Z,18.50
2019-04-09T08:52:42.859Z,18.69
2019-04-09T08:55:16.176Z,19.04
2019-04-09T08:57:50.865Z,19.23
2019-04-09T09:01:00.744Z,19.25
2019-04-09T09:03:20.681Z,19.21
2019-04-09T09:06:01.940Z,19.32
2019-04-09T09:08:36.675Z,19.29
2019-04-09T09:11:06.285Z,19.20
2019-04-09T09:13:43.570Z,19.46
2019-04-09T09:16:25.372Z,19.70
2019-04-09T09:19:10.644Z,20.02
2019-04-09T09:21:53.649Z,20.46
2019-04-09T09:24:41.782Z,20.89
2019-04-09T09:27:14.803Z,21.11
2019-04-09T09:29:53.396Z,21.50
2019-04-09T09:32:24.988Z,21.85
2019-04-09T09:35:05.564Z,21.97
2019-04-09T09:37:36.680Z,22.12
2019-04-09T09:40:11.402Z,22.33
2019-04-09T09:42:59.417Z,22.37
2019-04-09T09:45:46.724Z,22.17
2019-04-09T09:48:24.868Z,22.30
2019-04-09T09:51:11.405Z,22.36
2019-04-09T09:53:41.332Z,22.15
2019-04-09T09:56:12.987Z,22.17
2019-04-09T09:59:00.850Z,22.44
2019-04-09T10:01:44.066Z,23.15
2019-04-09T10:04:32.784Z,23.59
2019-04-09T10:07:06.874Z,23.63
2019-04-09T10:09:37.969Z,23.86
2019-04-09T10:12:29.045Z,24.08
2019-04-09T10:14:57.093Z,24.49
2019-04-09T10:18:07.584Z,24.59
2019-04-09T10:20:49.372Z,24.54
2019-04-09T10:23:20.749Z,24.77
2019-04-09T10:26:13.740Z,25.28
2019-04-09T10:28:44.007Z,25.56
2019-04-09T10:31:37.475Z,25.72
2019-04-09T10:34:14.108Z,25.76
2019-04-09T10:36:51.687Z,25.90
2019-04-09T10:39:39.296Z,26.02
2019-04-09T10:42:25.407Z,26.63
2019-04-09T10:44:59.448Z,27.22
2019-04-09T10:47:48.685Z,27.54
2019-04-09T10:50:32.828Z,27.66
2019-04-09T10:53:09.191Z,27.63
2019-04-09T10:55:40.245Z,27.86
2019-04-09T10:58:20.055Z,27.99
2019-04-09T11:01:03.058Z,27.98
2019-04-09T11:03:36.011Z,28.40
2019-04-09T11:06:07.575Z,28.59
2019-04-09T11:08:41.931Z,28.47
2019-04-09T11:11:29.168Z,28.45
2019-04-09T11:14:16.821Z,28.78
2019-04-09T11:16:48.568Z,29.23
2019-04-09T11:19:32.971Z,29.32
2019-04-09T11:22:07.064Z,29.23
2019-04-09T11:24:55.805Z,29.25
2019-04-09T11:27:33.609Z,29.25
2019-04-09T11:30:11.967Z,28.13
2019-04-09T11:32:46.435Z,26.69
2019-04-09T11:35:17.737Z,26.72
2019-04-09T11:38:04.139Z,26.76
2019-04-09T11:40:37.773Z,26.76
2019-04-09T11:43:09.899Z,26.78
2019-04-09T11:45:53.724Z,26.88
2019-04-09T11:48:34.004Z,26.07
2019-04-09T11:51:21.609Z,25.52
2019-04-09T11:54:09.443Z,25.52
2019-04-09T11:56:50.490Z,26.17
2019-04-09T11:59:37.951Z,26.58
2019-04-09T12:02:12.659Z,26.79
2019-04-09T12:04:47.848Z,26.79
2019-04-09T12:07:34.155Z,26.24
2019-04-09T12:10:12.138Z,26.20
2019-04-09T12:13:00.234Z,25.90
2019-04-09T12:15:35.320Z,25.41
2019-04-09T12:18:07.358Z,25.23
2019-04-09T12:20:54.927Z,24.80
2019-04-09T12:23:26.680Z,27.15
2019-04-09T12:26:14.710Z,29.70
2019-04-09T12:29:08.603Z,32.19
2019-04-09T12:31:42.142Z,33.66
2019-04-09T12:34:31.247Z,33.74
2019-04-09T12:37:17.455Z,33.55
2019-04-09T12:39:51.391Z,34.87
2019-04-09T12:43:33.487Z,36.59
2019-04-09T12:47:16.261Z,37.16
2019-04-09T12:50:58.604Z,37.94
2019-04-09T12:53:46.073Z,36.41
2019-04-09T12:56:23.079Z,33.45
2019-04-09T12:59:09.280Z,33.13
2019-04-09T13:01:40.708Z,34.15
2019-04-09T13:04:14.429Z,34.92
2019-04-09T13:07:02.192Z,35.00
2019-04-09T13:09:46.738Z,35.62
2019-04-09T13:12:34.198Z,36.22
2019-04-09T13:15:21.982Z,36.20
2019-04-09T13:18:02.609Z,36.07
2019-04-09T13:20:34.538Z,34.49
2019-04-09T13:23:06.054Z,35.05
2019-04-09T13:25:43.349Z,35.68
2019-04-09T13:28:26.819Z,36.11
2019-04-09T13:31:12.995Z,35.14
2019-04-09T13:33:50.974Z,34.94
2019-04-09T13:36:34.129Z,34.05
2019-04-09T13:39:21.811Z,33.55
2019-04-09T13:42:10.603Z,31.94
2019-04-09T13:44:45.201Z,29.95
2019-04-09T13:47:23.507Z,28.84
2019-04-09T13:50:00.623Z,29.04
2019-04-09T13:52:40.312Z,29.32
2019-04-09T13:55:12.561Z,29.22
2019-04-09T13:57:42.249Z,29.53
2019-04-09T14:00:15.274Z,29.72
2019-04-09T14:02:56.043Z,29.80
2019-04-09T14:05:24.311Z,29.44
2019-04-09T14:07:54.834Z,29.46
2019-04-09T14:10:24.871Z,29.02
2019-04-09T14:12:54.431Z,28.28
2019-04-09T14:15:23.979Z,27.27
2019-04-09T14:18:01.263Z,26.28
2019-04-09T14:20:31.696Z,25.73
2019-04-09T14:23:01.711Z,25.36
2019-04-09T14:25:31.771Z,24.97
2019-04-09T14:28:01.692Z,24.10
2019-04-09T14:30:32.598Z,23.23
2019-04-09T14:33:06.775Z,22.58
2019-04-09T14:35:33.836Z,22.11
2019-04-09T14:38:04.274Z,21.61
2019-04-09T14:40:34.191Z,21.13
2019-04-09T14:43:04.005Z,20.62
2019-04-09T14:45:34.368Z,20.05
2019-04-09T14:48:04.517Z,19.53
2019-04-09T14:50:34.096Z,19.27
2019-04-09T14:53:04.987Z,19.16
2019-04-09T14:55:34.984Z,19.02
2019-04-09T14:58:04.580Z,18.80
2019-04-09T15:00:34.692Z,18.56
2019-04-09T15:03:12.454Z,18.38
2019-04-09T15:05:35.876Z,18.27
2019-04-09T15:08:05.528Z,18.05
2019-04-09T15:10:35.051Z,17.88
2019-04-09T15:13:04.964Z,17.85
2019-04-09T15:15:34.815Z,17.97
2019-04-09T15:18:04.284Z,18.03
2019-04-09T15:20:33.628Z,17.98
2019-04-09T15:23:03.042Z,17.84
2019-04-09T15:25:32.521Z,17.83
2019-04-09T15:28:01.927Z,17.88
2019-04-09T15:30:31.355Z,17.83
2019-04-09T15:33:00.737Z,17.78
2019-04-09T15:35:30.543Z,17.73
2019-04-09T15:38:00.252Z,17.65
2019-04-09T15:40:29.866Z,17.64
2019-04-09T15:42:59.423Z,17.67
2019-04-09T15:45:29.257Z,17.85
2019-04-09T15:47:59.083Z,17.91
2019-04-09T15:50:28.627Z,17.74
2019-04-09T15:52:58.422Z,17.72
2019-04-09T15:55:28.141Z,17.69
2019-04-09T15:57:57.530Z,17.68
2019-04-09T16:00:26.837Z,17.61
2019-04-09T16:02:56.660Z,17.73
2019-04-09T16:05:26.622Z,17.66
2019-04-09T16:07:56.273Z,17.61
2019-04-09T16:10:26.061Z,17.65
2019-04-09T16:12:55.673Z,17.65
2019-04-09T16:15:25.103Z,17.60
2019-04-09T16:17:54.432Z,17.57
2019-04-09T16:20:23.837Z,17.51
2019-04-09T16:22:53.468Z,17.54
2019-04-09T16:25:22.932Z,17.55
2019-04-09T16:27:52.835Z,17.51
2019-04-09T16:30:22.706Z,17.36
2019-04-09T16:33:04.415Z,17.15
2019-04-09T16:35:25.199Z,17.06
2019-04-09T16:37:54.738Z,16.90
2019-04-09T16:40:24.341Z,16.67
2019-04-09T16:42:56.507Z,16.54
2019-04-09T16:45:25.355Z,16.56
2019-04-09T16:47:54.762Z,16.60
2019-04-09T16:50:25.180Z,16.62
2019-04-09T16:52:56.292Z,16.61
2019-04-09T16:55:26.171Z,16.60
2019-04-09T16:58:02.821Z,16.54
2019-04-09T17:00:28.362Z,16.48
2019-04-09T17:02:58.067Z,16.47
2019-04-09T17:05:30.382Z,16.49
2019-04-09T17:07:58.836Z,16.50
2019-04-09T17:10:28.391Z,16.45
2019-04-09T17:12:58.234Z,16.36
2019-04-09T17:15:27.909Z,16.31
2019-04-09T17:17:57.416Z,16.31
2019-04-09T17:20:26.963Z,16.21
2019-04-09T17:23:54.283Z,16.07
2019-04-09T17:26:24.243Z,15.93
2019-04-09T17:28:54.689Z,15.89
2019-04-09T17:31:25.972Z,15.93
2019-04-09T17:33:57.191Z,15.97
2019-04-09T17:36:27.287Z,15.96
2019-04-09T17:38:58.199Z,15.90
2019-04-09T17:41:28.349Z,15.82
2019-04-09T17:43:58.052Z,15.78
2019-04-09T17:46:28.451Z,15.77
2019-04-09T17:48:58.329Z,15.74
2019-04-09T17:51:27.974Z,15.68
2019-04-09T17:53:57.576Z,15.71
2019-04-09T17:56:28.009Z,15.70
2019-04-09T17:58:58.509Z,15.75
2019-04-09T18:01:28.108Z,15.80
2019-04-09T18:03:57.844Z,15.80
2019-04-09T18:06:27.556Z,15.71
2019-04-09T18:08:57.382Z,15.65
2019-04-09T18:11:27.097Z,15.61
2019-04-09T18:13:56.790Z,15.61
2019-04-09T18:16:26.610Z,15.58
2019-04-09T18:18:56.820Z,15.53
2019-04-09T18:21:26.824Z,15.55
2019-04-09T18:23:56.426Z,15.55
2019-04-09T18:26:25.897Z,15.48
2019-04-09T18:28:56.477Z,15.48
2019-04-09T18:31:32.228Z,15.49
2019-04-09T18:33:57.139Z,15.53
2019-04-09T18:36:26.608Z,15.59
2019-04-09T18:38:56.114Z,15.59
2019-04-09T18:41:26.314Z,15.56
2019-04-09T18:43:56.205Z,15.59
2019-04-09T18:46:26.110Z,15.54
2019-04-09T18:48:55.704Z,15.48
2019-04-09T18:51:27.345Z,15.37
2019-04-09T18:53:56.265Z,15.28
2019-04-09T18:56:25.746Z,15.23
2019-04-09T18:58:55.197Z,15.20
2019-04-09T19:01:24.714Z,15.11
2019-04-09T19:04:05.572Z,15.11
2019-04-09T19:06:26.225Z,15.05
2019-04-09T19:08:55.815Z,15.01
2019-04-09T19:11:25.322Z,14.99
2019-04-09T19:13:55.501Z,14.96
2019-04-09T19:16:26.239Z,15.00
2019-04-09T19:18:56.104Z,15.06
2019-04-09T19:21:25.609Z,15.07
2019-04-09T19:24:07.442Z,15.11
2019-04-09T19:26:37.897Z,15.02
2019-04-09T19:29:08.551Z,14.96
2019-04-09T19:31:38.234Z,14.97
2019-04-09T19:34:07.703Z,14.94
2019-04-09T19:36:37.109Z,14.91
2019-04-09T19:39:07.506Z,14.87
2019-04-09T19:41:37.089Z,14.90
2019-04-09T19:44:06.507Z,14.92
2019-04-09T19:46:36.476Z,14.88
2019-04-09T19:49:33.630Z,14.77
2019-04-09T19:52:04.125Z,14.83
2019-04-09T19:54:33.751Z,14.89
2019-04-09T19:57:03.875Z,14.88
2019-04-09T19:59:37.040Z,14.92
2019-04-09T20:02:06.543Z,14.87
2019-04-09T20:04:37.107Z,14.85
2019-04-09T20:07:06.967Z,14.90
2019-04-09T20:09:37.852Z,14.86
2019-04-09T20:12:07.536Z,14.89
2019-04-09T20:14:59.744Z,14.94
2019-04-09T20:17:29.274Z,14.95
2019-04-09T20:19:59.615Z,14.88
2019-04-09T20:22:29.553Z,14.87
2019-04-09T20:24:59.518Z,14.84
2019-04-09T20:27:29.230Z,14.87
2019-04-09T20:29:59.437Z,14.81
2019-04-09T20:32:28.978Z,14.76
2019-04-09T20:35:04.061Z,14.71
2019-04-09T20:37:29.704Z,14.76
2019-04-09T20:39:59.348Z,14.61
2019-04-09T20:42:29.031Z,14.57
2019-04-09T20:44:58.712Z,14.52
2019-04-09T20:47:28.928Z,14.51
2019-04-09T20:49:58.978Z,14.52
2019-04-09T20:52:28.589Z,14.47
2019-04-09T20:54:59.675Z,14.45
2019-04-09T20:57:29.509Z,14.44
2019-04-09T21:00:13.026Z,14.42
2019-04-09T21:02:47.648Z,14.43
2019-04-09T21:05:19.036Z,14.44
2019-04-09T21:07:48.969Z,14.41
2019-04-09T21:10:19.072Z,14.39
2019-04-09T21:12:48.848Z,14.35
2019-04-09T21:15:18.559Z,14.38
2019-04-09T21:17:48.097Z,14.36
2019-04-09T21:20:19.073Z,14.32
2019-04-09T21:22:48.651Z,14.27
2019-04-09T21:25:18.330Z,14.26
2019-04-09T21:27:47.923Z,14.23
2019-04-09T21:30:17.355Z,14.21
2019-04-09T21:32:46.695Z,14.21
2019-04-09T21:35:17.168Z,14.21
2019-04-09T21:37:46.659Z,14.15
2019-04-09T21:40:19.401Z,14.14
2019-04-09T21:42:47.472Z,14.15
2019-04-09T21:45:17.687Z,14.15
2019-04-09T21:47:47.184Z,14.13
2019-04-09T21:50:16.865Z,14.14
2019-04-09T21:52:46.607Z,14.13
2019-04-09T21:55:16.211Z,14.13
2019-04-09T21:57:55.973Z,14.12
2019-04-09T22:00:40.506Z,14.12
2019-04-09T22:03:09.951Z,14.12
2019-04-09T22:05:39.343Z,14.14
2019-04-09T22:08:09.820Z,14.15
2019-04-09T22:10:39.910Z,14.19
2019-04-09T22:13:09.422Z,14.15
2019-04-09T22:15:38.841Z,14.14
2019-04-09T22:18:16.287Z,14.13
2019-04-09T22:20:39.547Z,14.11
2019-04-09T22:23:09.133Z,14.11
2019-04-09T22:25:38.850Z,14.04
2019-04-09T22:28:08.483Z,13.99
2019-04-09T22:30:39.099Z,14.07
2019-04-09T22:33:13.648Z,13.99
2019-04-09T22:35:41.695Z,13.97
2019-04-09T22:38:14.371Z,13.93
2019-04-09T22:40:44.160Z,13.88
2019-04-09T22:43:14.855Z,13.83
2019-04-09T22:45:45.354Z,13.82
2019-04-09T22:48:15.765Z,13.77
2019-04-09T22:50:46.202Z,13.74
2019-04-09T22:53:16.427Z,13.73
2019-04-09T22:55:46.741Z,13.69
2019-04-09T22:58:16.994Z,13.70
2019-04-09T23:00:49.271Z,13.67
2019-04-09T23:03:24.033Z,13.66
2019-04-09T23:05:58.056Z,13.65
2019-04-09T23:08:32.120Z,13.66
2019-04-09T23:11:06.381Z,13.68
2019-04-09T23:13:35.966Z,13.62
2019-04-09T23:16:06.719Z,13.61
2019-04-09T23:18:37.172Z,13.60
2019-04-09T23:21:07.423Z,13.60
2019-04-09T23:23:37.420Z,13.63
2019-04-09T23:26:07.132Z,13.59
2019-04-09T23:28:37.118Z,13.57
2019-04-09T23:31:06.667Z,13.61
2019-04-09T23:33:36.541Z,13.59
2019-04-09T23:36:06.122Z,13.59
2019-04-09T23:38:36.850Z,13.57
2019-04-09T23:41:06.531Z,13.53
2019-04-09T23:43:36.546Z,13.53
2019-04-09T23:46:07.389Z,13.48
2019-04-09T23:48:38.084Z,13.44
2019-04-09T23:51:09.010Z,13.42
2019-04-09T23:53:38.716Z,13.33
2019-04-09T23:56:09.356Z,13.25
2019-04-09T23:58:39.653Z,13.19
